Okolona, Arkansas
Current Conditions -  °F | °C
As of 1:56 PM on Sunday 21 Dec 2014 (Local Time) from KADF Reporting Station
Few Clouds Few Clouds  
Wind Chill: 56°   Ceiling: Unl
Heat Index: 56°   Visibility: 10mi
Dew Point: 44°   Wind: 6mph
Humidity: 64%   Direction: 150°SSE
Pressure: 30.02"   Gusts: NA
Location:  34°N, 93.34°W
Report Text: KADF 211956Z AUTO 15005KT 10SM FEW100 13/07 A3002 RMK AO2 T01330066 SLP181
Loading
Personal Weather Stations






























Interactive Weather Map New forecast layout! Learn more

10-Day Weather Forecast

Advertisements
Track Severe Weather on mobile